Time;durP1;ratioP1;P1;durP2;ratioP2;P2;SDS_P1;SDS_P2;PMS_P1;PMS_P2;Temp;Humidity;BMP_temperature;BMP_pressure;BME280_temperature;BME280_humidity;BME280_pressure;Samples;Min_cycle;Max_cycle;Signal;HPM_P1;HPM_P2
2022/09/18 00:02:21;;;;;;;1.67;0.90;;;10.20;99.90;;;;;;5073224;28;20537;-68
2022/09/18 00:04:48;;;;;;;1.20;1.10;;;10.30;99.90;;;;;;5073945;28;20446;-69
2022/09/18 00:07:15;;;;;;;1.30;0.80;;;10.30;99.90;;;;;;5072874;28;20454;-69
2022/09/18 00:09:43;;;;;;;3.03;0.80;;;10.20;99.90;;;;;;5073590;28;20463;-69
2022/09/18 00:12:11;;;;;;;0.90;0.73;;;10.20;99.90;;;;;;5073840;28;20449;-69
2022/09/18 00:14:38;;;;;;;1.47;1.07;;;10.20;99.90;;;;;;5072974;28;20450;-69
2022/09/18 00:17:05;;;;;;;1.30;1.07;;;10.20;99.90;;;;;;5072740;28;20486;-69
2022/09/18 00:19:31;;;;;;;5.90;1.27;;;10.20;99.90;;;;;;5073000;28;20541;-69
2022/09/18 00:21:58;;;;;;;1.83;1.20;;;10.30;99.90;;;;;;5073121;28;20464;-69
2022/09/18 00:24:25;;;;;;;1.33;0.90;;;10.20;99.90;;;;;;5072663;28;20948;-69
2022/09/18 00:26:52;;;;;;;3.33;1.20;;;10.20;99.90;;;;;;5072620;28;20482;-69
2022/09/18 00:29:20;;;;;;;3.20;1.00;;;10.30;99.90;;;;;;5072828;28;20454;-69
2022/09/18 00:31:47;;;;;;;1.93;1.53;;;10.30;99.90;;;;;;5073250;28;20465;-69
2022/09/18 00:34:15;;;;;;;5.63;2.20;;;10.30;99.90;;;;;;5072957;28;20469;-69
2022/09/18 00:36:43;;;;;;;1.20;1.10;;;10.20;99.90;;;;;;5072728;28;20481;-69
2022/09/18 00:39:11;;;;;;;1.13;1.00;;;10.20;99.90;;;;;;5073039;28;20461;-69
2022/09/18 00:41:41;;;;;;;1.00;0.90;;;10.20;99.90;;;;;;5071905;28;20921;-69
2022/09/18 00:44:33;;;;;;;1.20;0.90;;;10.20;99.90;;;;;;5072826;28;20946;-68
2022/09/18 00:47:06;;;;;;;3.70;1.80;;;10.30;99.90;;;;;;5072754;28;20458;-69
2022/09/18 00:49:34;;;;;;;1.87;0.90;;;10.40;99.90;;;;;;5072217;28;20469;-69
2022/09/18 00:52:02;;;;;;;3.43;1.10;;;10.30;99.90;;;;;;5073302;28;20790;-69
2022/09/18 00:54:34;;;;;;;2.00;0.90;;;10.40;99.90;;;;;;5072145;28;20465;-69
2022/09/18 00:57:04;;;;;;;2.63;1.10;;;10.40;99.90;;;;;;5072713;28;20485;-70
2022/09/18 00:59:35;;;;;;;3.07;1.03;;;10.30;99.90;;;;;;5072275;28;20809;-69
2022/09/18 01:02:04;;;;;;;1.13;1.00;;;10.40;99.90;;;;;;5072706;28;20794;-70
2022/09/18 01:04:31;;;;;;;1.40;1.00;;;10.30;99.90;;;;;;5071978;28;20934;-69
2022/09/18 01:07:05;;;;;;;1.10;0.93;;;10.40;99.90;;;;;;5072810;28;20486;-70
2022/09/18 01:09:40;;;;;;;1.40;1.10;;;10.30;99.90;;;;;;5072341;28;20447;-70
2022/09/18 01:12:15;;;;;;;2.10;1.00;;;10.30;99.90;;;;;;5072551;28;20437;-70
2022/09/18 01:14:52;;;;;;;2.20;1.00;;;10.20;99.90;;;;;;5072758;28;20945;-70
2022/09/18 01:17:31;;;;;;;2.40;1.10;;;10.40;99.90;;;;;;5071310;28;20470;-70
2022/09/18 01:20:38;;;;;;;2.80;1.10;;;10.30;99.90;;;;;;5072315;28;20526;-70
2022/09/18 01:23:21;;;;;;;2.53;1.27;;;10.30;99.90;;;;;;5042186;28;20914;-70
2022/09/18 01:26:02;;;;;;;2.13;1.00;;;10.30;99.90;;;;;;5071517;28;20926;-70
2022/09/18 01:28:38;;;;;;;4.53;1.10;;;10.30;99.90;;;;;;5071305;28;20437;-70
2022/09/18 01:31:09;;;;;;;1.77;0.90;;;10.30;99.90;;;;;;5072122;28;20438;-70
2022/09/18 01:33:43;;;;;;;1.00;0.80;;;10.40;99.90;;;;;;5071481;28;20454;-71
2022/09/18 01:36:15;;;;;;;3.03;0.90;;;10.30;99.90;;;;;;5071556;28;20526;-70
2022/09/18 01:38:47;;;;;;;2.43;0.90;;;10.20;99.90;;;;;;5072156;28;20476;-70
2022/09/18 01:41:19;;;;;;;1.97;1.00;;;10.30;99.90;;;;;;5071582;28;20432;-70
2022/09/18 01:43:51;;;;;;;2.93;0.93;;;10.40;99.90;;;;;;5071967;28;20792;-70
2022/09/18 01:46:19;;;;;;;2.53;0.97;;;10.30;99.90;;;;;;5071051;28;20442;-71
2022/09/18 01:48:53;;;;;;;6.37;1.10;;;10.30;99.90;;;;;;5071902;28;20445;-70
2022/09/18 01:51:24;;;;;;;2.20;0.90;;;10.40;99.90;;;;;;5070995;28;20443;-70
2022/09/18 01:53:56;;;;;;;3.63;1.10;;;10.40;99.90;;;;;;5071500;28;20537;-70
2022/09/18 01:56:26;;;;;;;1.93;0.80;;;10.30;99.90;;;;;;5070439;28;20550;-71
2022/09/18 01:58:58;;;;;;;4.63;2.07;;;10.30;99.90;;;;;;5067778;28;20469;-71
2022/09/18 02:01:29;;;;;;;1.50;0.80;;;10.20;99.90;;;;;;5067921;28;20915;-72
2022/09/18 02:04:02;;;;;;;0.80;0.73;;;10.20;99.90;;;;;;5071073;28;20505;-72
2022/09/18 02:06:32;;;;;;;2.30;0.70;;;10.20;99.90;;;;;;5070496;28;20447;-71
2022/09/18 02:09:01;;;;;;;1.53;0.87;;;10.40;99.90;;;;;;5061937;28;20462;-71
2022/09/18 02:11:28;;;;;;;1.67;1.00;;;10.30;99.90;;;;;;5070621;28;20448;-74
2022/09/18 02:14:04;;;;;;;2.40;1.17;;;10.30;99.90;;;;;;5070841;28;20452;-74
2022/09/18 02:16:34;;;;;;;1.30;0.83;;;10.40;99.90;;;;;;5070139;28;20478;-75
2022/09/18 02:19:07;;;;;;;1.13;1.03;;;10.40;99.90;;;;;;5070902;28;20958;-75
2022/09/18 02:21:36;;;;;;;1.60;1.17;;;10.40;99.90;;;;;;5070942;28;20528;-75
2022/09/18 02:24:05;;;;;;;1.20;1.00;;;10.30;99.90;;;;;;5068089;28;20447;-71
2022/09/18 02:26:33;;;;;;;1.20;1.10;;;10.30;99.90;;;;;;5069086;28;20474;-68
2022/09/18 02:29:03;;;;;;;3.93;1.10;;;10.30;99.90;;;;;;5070819;28;20455;-70
2022/09/18 02:31:30;;;;;;;3.77;1.23;;;10.30;99.90;;;;;;5070111;28;20445;-71
2022/09/18 02:33:57;;;;;;;1.87;1.03;;;10.30;99.90;;;;;;5071167;28;20444;-71
2022/09/18 02:36:39;;;;;;;1.20;0.90;;;10.30;99.90;;;;;;5069624;28;20446;-70
2022/09/18 02:39:30;;;;;;;3.33;1.00;;;10.40;99.90;;;;;;5071343;28;20476;-71
2022/09/18 02:42:07;;;;;;;5.50;1.00;;;10.20;99.90;;;;;;5058058;28;20448;-71
2022/09/18 02:44:45;;;;;;;2.20;1.20;;;10.20;99.90;;;;;;5070305;28;20446;-71
2022/09/18 02:47:25;;;;;;;1.73;1.43;;;10.30;99.90;;;;;;5070807;28;20444;-71
2022/09/18 02:49:58;;;;;;;1.10;0.90;;;10.30;99.90;;;;;;5071001;28;20789;-71
2022/09/18 02:52:29;;;;;;;2.77;1.00;;;10.20;99.90;;;;;;5070332;28;20447;-70
2022/09/18 02:55:00;;;;;;;1.87;0.70;;;10.20;99.90;;;;;;5058134;28;20798;-71
2022/09/18 02:57:32;;;;;;;1.43;0.60;;;10.20;99.90;;;;;;5069633;28;20495;-71
2022/09/18 03:00:03;;;;;;;2.40;1.10;;;10.20;99.90;;;;;;5070591;28;20962;-71
2022/09/18 03:02:30;;;;;;;2.00;1.00;;;10.20;99.90;;;;;;5070312;28;20759;-71
2022/09/18 03:04:57;;;;;;;1.40;0.80;;;10.20;99.90;;;;;;5070407;28;20447;-71
2022/09/18 03:07:25;;;;;;;1.17;1.00;;;10.30;99.90;;;;;;5069875;28;20538;-71
2022/09/18 03:09:51;;;;;;;1.43;0.87;;;10.20;99.90;;;;;;5070318;28;20993;-71
2022/09/18 03:12:18;;;;;;;1.63;0.60;;;10.10;99.90;;;;;;5070131;28;20447;-71
2022/09/18 03:14:45;;;;;;;3.00;1.23;;;10.00;99.90;;;;;;5070699;28;20457;-71
2022/09/18 03:17:13;;;;;;;2.07;1.07;;;9.90;99.90;;;;;;5070168;28;20450;-71
2022/09/18 03:19:40;;;;;;;1.40;1.00;;;9.90;99.90;;;;;;5070298;28;20450;-71
2022/09/18 03:22:07;;;;;;;1.33;0.80;;;9.90;99.90;;;;;;5070357;28;20454;-71
2022/09/18 03:24:33;;;;;;;1.40;0.63;;;9.80;99.90;;;;;;5069744;28;20464;-71
2022/09/18 03:27:00;;;;;;;1.00;0.80;;;9.90;99.90;;;;;;5072438;28;20835;-71
2022/09/18 03:29:27;;;;;;;1.63;0.80;;;9.90;99.90;;;;;;5073347;28;20978;-70
2022/09/18 03:31:54;;;;;;;0.90;0.80;;;9.90;99.90;;;;;;5074320;28;20450;-71
2022/09/18 03:34:22;;;;;;;1.73;1.03;;;9.90;99.90;;;;;;5073722;28;20456;-71
2022/09/18 03:36:49;;;;;;;1.27;0.80;;;9.90;99.90;;;;;;5073854;28;20449;-71
2022/09/18 03:39:17;;;;;;;1.00;0.73;;;9.90;99.90;;;;;;5073100;28;20489;-70
2022/09/18 03:41:44;;;;;;;0.80;0.63;;;9.90;99.90;;;;;;5073934;28;20448;-71
2022/09/18 03:44:10;;;;;;;1.33;1.10;;;10.00;99.90;;;;;;5074098;28;20472;-71
2022/09/18 03:46:37;;;;;;;1.10;0.90;;;9.90;99.90;;;;;;5072781;28;20940;-71
2022/09/18 03:49:04;;;;;;;1.90;0.97;;;9.90;99.90;;;;;;5073868;28;20458;-71
2022/09/18 03:51:32;;;;;;;3.30;1.23;;;9.90;99.90;;;;;;5073347;28;20450;-71
2022/09/18 03:53:59;;;;;;;1.77;1.00;;;10.00;99.90;;;;;;5073445;28;20445;-71
2022/09/18 03:56:26;;;;;;;3.87;2.83;;;9.90;99.90;;;;;;5072846;28;20457;-71
2022/09/18 03:58:53;;;;;;;2.17;0.90;;;9.90;99.90;;;;;;5073356;28;20474;-71
2022/09/18 04:01:20;;;;;;;3.03;0.67;;;9.90;99.90;;;;;;5073146;28;20450;-71
2022/09/18 04:03:47;;;;;;;0.80;0.73;;;9.90;99.90;;;;;;5073783;28;20451;-71
2022/09/18 04:06:14;;;;;;;1.00;0.70;;;9.90;99.90;;;;;;5068585;28;20468;-71
2022/09/18 04:08:42;;;;;;;1.30;0.80;;;10.00;99.90;;;;;;5064585;28;20864;-71
2022/09/18 04:11:09;;;;;;;1.00;0.70;;;10.00;99.90;;;;;;5073345;28;20462;-71
2022/09/18 04:13:36;;;;;;;1.73;0.90;;;10.00;99.90;;;;;;5072664;28;21120;-71
2022/09/18 04:16:02;;;;;;;1.20;1.00;;;10.00;99.90;;;;;;5072991;28;20454;-71
2022/09/18 04:18:29;;;;;;;1.07;0.97;;;9.90;99.90;;;;;;5072773;28;20824;-71
2022/09/18 04:20:56;;;;;;;1.50;0.90;;;10.00;99.90;;;;;;5073397;28;20457;-71
2022/09/18 04:23:23;;;;;;;1.60;0.97;;;10.10;99.90;;;;;;5072506;28;20453;-71
2022/09/18 04:25:51;;;;;;;0.90;0.67;;;10.10;99.90;;;;;;5072726;28;20455;-71
2022/09/18 04:28:18;;;;;;;0.93;0.77;;;10.10;99.90;;;;;;5072627;28;20472;-72
2022/09/18 04:30:46;;;;;;;1.63;0.70;;;10.00;99.90;;;;;;5073406;28;20821;-72
2022/09/18 04:33:14;;;;;;;1.00;0.90;;;10.10;99.90;;;;;;5072799;28;20462;-71
2022/09/18 04:35:41;;;;;;;1.60;0.93;;;10.00;99.90;;;;;;5073084;28;20473;-72
2022/09/18 04:38:08;;;;;;;0.80;0.70;;;10.10;99.90;;;;;;5072413;28;20481;-73
2022/09/18 04:40:35;;;;;;;1.13;0.80;;;10.00;99.90;;;;;;5072372;28;20446;-72
2022/09/18 04:43:04;;;;;;;0.80;0.60;;;10.10;99.90;;;;;;5072939;28;20458;-73
2022/09/18 04:45:31;;;;;;;1.83;1.00;;;10.00;99.90;;;;;;5072569;28;20446;-71
2022/09/18 04:47:57;;;;;;;1.93;1.00;;;10.00;99.90;;;;;;5072860;28;20446;-71
2022/09/18 04:50:25;;;;;;;1.20;0.87;;;9.90;99.90;;;;;;5072059;28;20457;-72
2022/09/18 04:52:51;;;;;;;0.90;0.60;;;9.90;99.90;;;;;;5072793;28;20450;-72
2022/09/18 04:55:18;;;;;;;2.20;0.90;;;10.00;99.90;;;;;;5072277;28;20452;-72
2022/09/18 04:57:45;;;;;;;0.90;0.80;;;10.00;99.90;;;;;;5072751;28;20781;-71
2022/09/18 05:00:14;;;;;;;0.97;0.77;;;10.00;99.90;;;;;;5072928;28;20451;-71
2022/09/18 05:02:41;;;;;;;1.10;0.90;;;10.00;99.90;;;;;;5072538;28;20530;-75
2022/09/18 05:05:08;;;;;;;2.60;0.80;;;10.00;99.90;;;;;;5072220;28;20450;-74
2022/09/18 05:07:35;;;;;;;1.67;0.93;;;10.10;99.90;;;;;;5071733;28;20685;-74
2022/09/18 05:10:02;;;;;;;2.90;0.63;;;10.10;99.90;;;;;;5072325;28;20938;-74
2022/09/18 05:12:29;;;;;;;1.37;0.90;;;10.10;99.90;;;;;;5071492;28;20943;-74
2022/09/18 05:14:56;;;;;;;0.90;0.70;;;10.10;99.90;;;;;;5071795;28;20450;-74
2022/09/18 05:17:24;;;;;;;0.90;0.80;;;10.10;99.90;;;;;;5071471;28;20458;-74
2022/09/18 05:19:51;;;;;;;1.40;0.90;;;10.20;99.90;;;;;;5072138;28;20985;-74
2022/09/18 05:22:17;;;;;;;1.50;1.10;;;10.20;99.90;;;;;;5071580;28;20946;-75
2022/09/18 05:24:44;;;;;;;1.00;0.80;;;10.10;99.90;;;;;;5075362;28;20541;-75
2022/09/18 05:27:11;;;;;;;1.70;1.03;;;10.10;99.90;;;;;;5075931;28;20494;-75
2022/09/18 05:29:38;;;;;;;1.20;1.03;;;10.20;99.90;;;;;;5074395;28;20454;-74
2022/09/18 05:32:05;;;;;;;1.80;0.90;;;10.20;99.90;;;;;;5072075;28;21013;-75
2022/09/18 05:34:33;;;;;;;1.50;1.40;;;10.20;99.90;;;;;;5071607;28;20955;-74
2022/09/18 05:37:00;;;;;;;2.90;1.37;;;10.20;99.90;;;;;;5071437;28;20961;-75
2022/09/18 05:39:27;;;;;;;1.40;1.00;;;10.20;99.90;;;;;;5071090;28;21018;-74
2022/09/18 05:41:53;;;;;;;3.87;1.20;;;10.20;99.90;;;;;;5058699;28;20791;-74
2022/09/18 05:44:20;;;;;;;1.00;0.73;;;10.30;99.90;;;;;;5071650;28;20805;-73
2022/09/18 05:46:47;;;;;;;1.30;0.97;;;10.20;99.90;;;;;;5071556;28;20450;-75
2022/09/18 05:49:15;;;;;;;0.90;0.80;;;10.30;99.90;;;;;;5071220;28;20850;-75
2022/09/18 05:51:43;;;;;;;0.90;0.70;;;10.30;99.90;;;;;;5071654;28;20513;-75
2022/09/18 05:54:10;;;;;;;1.03;0.83;;;10.20;99.90;;;;;;5071668;28;20451;-75
2022/09/18 05:56:37;;;;;;;2.30;1.33;;;10.20;99.90;;;;;;5070827;28;20466;-75
2022/09/18 05:59:04;;;;;;;1.30;1.17;;;10.30;99.90;;;;;;5071157;28;20476;-75
2022/09/18 06:01:31;;;;;;;4.63;1.27;;;10.20;99.90;;;;;;5071077;28;20448;-75
2022/09/18 06:03:58;;;;;;;1.33;0.90;;;10.30;99.90;;;;;;5071438;28;20450;-75
2022/09/18 06:06:27;;;;;;;1.03;0.90;;;10.20;99.90;;;;;;5070708;28;20442;-75
2022/09/18 06:08:56;;;;;;;4.07;1.10;;;10.30;99.90;;;;;;5071183;28;20459;-75
2022/09/18 06:11:23;;;;;;;1.23;1.07;;;10.20;99.90;;;;;;5071142;28;20455;-75
2022/09/18 06:13:51;;;;;;;1.63;0.90;;;10.30;99.90;;;;;;5071529;28;20453;-74
2022/09/18 06:16:18;;;;;;;1.57;1.30;;;10.20;99.90;;;;;;5070464;28;20458;-75
2022/09/18 06:18:45;;;;;;;1.43;0.90;;;10.30;99.90;;;;;;5071006;28;20483;-75
2022/09/18 06:21:13;;;;;;;1.20;1.10;;;10.30;99.90;;;;;;5071798;28;20459;-75
2022/09/18 06:23:41;;;;;;;1.73;1.20;;;10.30;99.90;;;;;;5070965;28;20467;-75
2022/09/18 06:26:10;;;;;;;2.67;1.30;;;10.30;99.90;;;;;;5070687;28;20867;-75
2022/09/18 06:28:37;;;;;;;1.77;1.20;;;10.30;99.90;;;;;;5070046;28;20504;-75
2022/09/18 06:31:05;;;;;;;1.13;1.03;;;10.30;99.90;;;;;;5070967;28;20462;-74
2022/09/18 06:33:32;;;;;;;4.60;1.10;;;10.30;99.90;;;;;;5070470;28;20446;-75
2022/09/18 06:35:59;;;;;;;1.30;1.10;;;10.30;99.90;;;;;;5071104;28;20453;-75
2022/09/18 06:38:27;;;;;;;3.00;1.37;;;10.30;99.90;;;;;;5070276;28;20827;-75
2022/09/18 06:40:54;;;;;;;1.13;1.03;;;10.30;99.90;;;;;;5071171;28;20470;-75
2022/09/18 06:43:23;;;;;;;1.40;1.10;;;10.40;99.90;;;;;;5070534;28;20475;-74
2022/09/18 06:45:54;;;;;;;1.23;1.13;;;10.40;99.90;;;;;;5070885;28;20447;-74
2022/09/18 06:48:21;;;;;;;1.53;1.13;;;10.40;99.90;;;;;;5070382;28;20455;-74
2022/09/18 06:50:51;;;;;;;3.70;1.83;;;10.40;99.90;;;;;;5070931;28;20535;-75
2022/09/18 06:53:18;;;;;;;1.83;1.40;;;10.40;99.90;;;;;;5069267;28;20447;-75
2022/09/18 06:55:47;;;;;;;5.33;1.20;;;10.50;99.90;;;;;;5070951;28;20989;-75
2022/09/18 06:58:16;;;;;;;1.17;1.07;;;10.60;99.90;;;;;;5070840;28;20832;-75
2022/09/18 07:00:44;;;;;;;2.40;1.47;;;10.70;99.90;;;;;;5073312;28;20488;-77
2022/09/18 07:03:12;;;;;;;1.30;1.13;;;10.70;99.90;;;;;;5075121;28;20453;-75
2022/09/18 07:05:41;;;;;;;2.43;1.10;;;10.70;99.90;;;;;;5073457;28;20970;-75
2022/09/18 07:08:09;;;;;;;1.33;0.80;;;10.60;99.90;;;;;;5073861;28;20538;-74
2022/09/18 07:10:35;;;;;;;1.37;1.03;;;10.50;99.90;;;;;;5072739;28;20736;-74
2022/09/18 07:13:02;;;;;;;2.63;1.23;;;10.60;99.90;;;;;;5074303;28;20456;-74
2022/09/18 07:15:29;;;;;;;1.93;1.27;;;10.60;99.90;;;;;;5073843;28;20530;-74
2022/09/18 07:17:59;;;;;;;2.17;1.23;;;10.60;99.90;;;;;;5074345;28;20938;-74
2022/09/18 07:20:26;;;;;;;2.60;1.20;;;10.60;99.90;;;;;;5071117;28;20484;-74
2022/09/18 07:22:53;;;;;;;1.80;1.37;;;10.60;99.90;;;;;;5067372;28;20936;-74
2022/09/18 07:25:21;;;;;;;2.93;1.80;;;10.60;99.90;;;;;;5064619;28;20463;-74
2022/09/18 07:27:48;;;;;;;2.10;1.57;;;10.60;99.90;;;;;;5073840;28;20492;-74
2022/09/18 07:30:16;;;;;;;1.90;1.20;;;10.70;99.90;;;;;;5074477;28;20462;-74
2022/09/18 07:32:43;;;;;;;1.00;0.70;;;10.70;99.90;;;;;;5074577;28;20478;-74
2022/09/18 07:35:11;;;;;;;1.97;1.53;;;10.80;99.90;;;;;;5073387;28;20460;-74
2022/09/18 07:37:38;;;;;;;3.60;1.70;;;10.80;99.90;;;;;;5073759;28;20471;-74
2022/09/18 07:40:06;;;;;;;3.90;1.77;;;10.80;99.90;;;;;;5074076;28;20789;-75
2022/09/18 07:42:34;;;;;;;1.50;1.30;;;10.80;99.90;;;;;;5073491;28;20447;-74
2022/09/18 07:45:00;;;;;;;1.37;1.20;;;11.00;99.90;;;;;;5073598;28;20460;-74
2022/09/18 07:47:27;;;;;;;2.43;1.53;;;11.00;99.90;;;;;;5073304;28;20460;-74
2022/09/18 07:49:54;;;;;;;4.90;1.50;;;11.10;99.90;;;;;;5073758;28;20538;-74
2022/09/18 07:52:22;;;;;;;1.70;1.23;;;11.20;99.90;;;;;;5065648;28;20450;-73
2022/09/18 07:54:50;;;;;;;3.20;1.10;;;11.20;99.90;;;;;;5073549;28;20445;-74
2022/09/18 07:57:17;;;;;;;1.60;1.10;;;11.20;99.90;;;;;;5073563;28;20453;-74
2022/09/18 07:59:44;;;;;;;1.20;1.00;;;11.20;99.90;;;;;;5073779;28;20477;-75
2022/09/18 08:02:11;;;;;;;1.00;0.80;;;11.30;99.90;;;;;;5074034;28;20467;-75
2022/09/18 08:04:38;;;;;;;1.10;1.00;;;11.30;99.90;;;;;;5072102;28;20682;-74
2022/09/18 08:07:04;;;;;;;2.10;1.13;;;11.40;99.90;;;;;;5073589;28;20456;-74
2022/09/18 08:09:33;;;;;;;2.47;1.00;;;11.50;99.90;;;;;;5072828;28;20461;-72
2022/09/18 08:11:59;;;;;;;1.10;0.97;;;11.50;99.90;;;;;;5072170;28;20812;-74
2022/09/18 08:14:26;;;;;;;1.43;1.10;;;11.40;99.90;;;;;;5072626;28;20933;-74
2022/09/18 08:16:53;;;;;;;1.53;0.97;;;11.50;99.90;;;;;;5073697;28;20802;-73
2022/09/18 08:19:20;;;;;;;1.87;1.20;;;11.50;99.90;;;;;;5072746;28;20488;-74
2022/09/18 08:21:47;;;;;;;1.20;0.80;;;11.60;99.90;;;;;;5073657;28;20786;-73
2022/09/18 08:24:16;;;;;;;1.60;1.43;;;11.40;99.90;;;;;;5073478;28;20454;-74
2022/09/18 08:26:44;;;;;;;2.20;0.90;;;11.50;99.90;;;;;;5072534;28;20568;-74
2022/09/18 08:29:17;;;;;;;1.13;1.03;;;11.40;99.90;;;;;;5073630;28;20547;-74
2022/09/18 08:31:44;;;;;;;2.50;1.10;;;11.40;99.90;;;;;;5073317;28;20448;-74
2022/09/18 08:34:11;;;;;;;3.53;1.57;;;11.50;99.90;;;;;;5073347;28;20475;-74
2022/09/18 08:36:38;;;;;;;1.50;1.10;;;11.50;99.90;;;;;;5072182;28;20458;-74
2022/09/18 08:39:05;;;;;;;2.30;1.83;;;11.60;99.90;;;;;;5073205;28;20449;-75
2022/09/18 08:41:48;;;;;;;1.93;1.00;;;11.80;99.90;;;;;;5072254;28;20452;-74
2022/09/18 08:44:23;;;;;;;2.33;1.00;;;11.80;99.90;;;;;;5073328;28;20442;-73
2022/09/18 08:46:55;;;;;;;1.77;0.80;;;11.90;99.90;;;;;;5060906;28;20775;-74
2022/09/18 08:49:27;;;;;;;1.10;0.93;;;12.00;99.90;;;;;;5072193;28;20446;-75
2022/09/18 08:51:59;;;;;;;4.60;1.07;;;12.10;99.90;;;;;;5073129;28;20434;-75
2022/09/18 08:54:39;;;;;;;1.07;0.90;;;12.20;99.90;;;;;;5071697;28;20952;-75
2022/09/18 08:57:17;;;;;;;1.50;1.20;;;12.30;99.90;;;;;;5072377;28;20489;-74
2022/09/18 08:59:47;;;;;;;1.90;1.23;;;12.10;99.90;;;;;;5066936;28;20825;-74
2022/09/18 09:02:25;;;;;;;1.10;0.90;;;12.10;99.90;;;;;;5072441;28;20917;-74
2022/09/18 09:04:55;;;;;;;1.03;0.80;;;12.10;99.90;;;;;;5071551;28;20442;-74
2022/09/18 09:07:35;;;;;;;1.57;0.90;;;12.10;99.90;;;;;;5072250;28;20457;-74
2022/09/18 09:10:27;;;;;;;3.30;0.90;;;12.10;99.90;;;;;;5069458;28;20445;-74
2022/09/18 09:13:09;;;;;;;3.27;1.20;;;12.10;99.90;;;;;;5063734;28;20454;-74
2022/09/18 09:15:41;;;;;;;1.10;1.00;;;12.00;99.90;;;;;;5071427;28;20449;-74
2022/09/18 09:18:16;;;;;;;1.50;1.00;;;12.20;99.90;;;;;;5072297;28;20453;-75
2022/09/18 09:20:50;;;;;;;1.00;0.90;;;12.40;99.90;;;;;;5071594;28;20461;-74
2022/09/18 09:23:25;;;;;;;1.53;1.10;;;12.50;99.90;;;;;;5072526;28;20438;-74
2022/09/18 09:26:02;;;;;;;3.33;1.20;;;12.40;99.90;;;;;;5071492;28;20453;-73
2022/09/18 09:28:35;;;;;;;2.30;0.90;;;12.50;99.90;;;;;;5077898;28;20453;-75
2022/09/18 09:31:09;;;;;;;1.93;0.90;;;12.40;99.90;;;;;;5077931;28;20464;-73
2022/09/18 09:33:42;;;;;;;1.63;1.30;;;12.40;99.90;;;;;;5070604;28;20450;-72
2022/09/18 09:36:13;;;;;;;1.57;1.13;;;12.50;99.90;;;;;;5071458;28;20450;-72
2022/09/18 09:38:50;;;;;;;4.40;2.53;;;12.60;99.90;;;;;;5071714;28;20464;-72
2022/09/18 09:41:24;;;;;;;2.20;1.10;;;12.50;99.90;;;;;;5070208;28;20476;-74
2022/09/18 09:44:22;;;;;;;1.67;1.00;;;12.40;99.90;;;;;;5071653;28;20460;-69
2022/09/18 09:47:00;;;;;;;1.33;1.00;;;12.40;99.90;;;;;;5070078;28;20952;-71
2022/09/18 09:49:29;;;;;;;4.23;1.10;;;12.50;99.90;;;;;;5070394;28;20434;-71
2022/09/18 09:52:03;;;;;;;1.20;1.10;;;12.50;26.80;;;;;;5071111;28;20442;-71
2022/09/18 09:54:31;;;;;;;2.40;0.80;;;;;;;;;;5066775;28;20448;-70
2022/09/18 09:57:03;;;;;;;2.57;1.37;;;;;;;;;;5070378;28;20481;-71
2022/09/18 09:59:35;;;;;;;1.50;1.10;;;;;;;;;;5070433;28;20495;-71
2022/09/18 10:02:10;;;;;;;1.77;1.00;;;;;;;;;;5070843;28;20444;-73
2022/09/18 10:04:42;;;;;;;2.87;1.10;;;;;;;;;;5057022;28;20452;-72
2022/09/18 10:07:12;;;;;;;1.70;1.30;;;;;;;;;;5070788;28;20573;-71
2022/09/18 10:09:43;;;;;;;1.70;1.13;;;;;;;;;;5069610;28;20461;-71
2022/09/18 10:12:16;;;;;;;1.00;0.70;;;;;;;;;;5070914;28;20846;-71
2022/09/18 10:14:46;;;;;;;1.43;0.93;;;;;;;;;;5070332;28;20438;-71
2022/09/18 10:17:16;;;;;;;1.87;1.67;;;;;;;;;;5070993;28;20446;-71
2022/09/18 10:19:43;;;;;;;1.70;0.77;;;;;;;;;;5070216;28;20442;-74
2022/09/18 10:22:13;;;;;;;1.10;0.83;;;;;;;;;;5071350;28;20477;-75
2022/09/18 10:24:45;;;;;;;3.00;1.20;;;;;;;;;;5069998;28;20450;-73
2022/09/18 10:27:13;;;;;;;2.10;0.97;;;;;;;;;;5070067;28;20481;-73
2022/09/18 10:29:41;;;;;;;1.63;0.77;;;;;;;;;;5070981;28;20931;-75
2022/09/18 10:32:11;;;;;;;1.83;1.00;;;;;;;;;;5070900;28;20453;-75
2022/09/18 10:34:43;;;;;;;2.17;1.10;;;;;;;;;;5069916;28;20536;-75
2022/09/18 10:37:15;;;;;;;3.47;1.10;;;;;;;;;;5071636;28;20446;-73
2022/09/18 10:39:48;;;;;;;1.13;0.73;;;;;;;;;;5070723;28;20930;-70
2022/09/18 10:42:17;;;;;;;1.37;0.70;;;;;;;;;;5071469;28;20442;-71
2022/09/18 10:44:49;;;;;;;2.27;0.77;;;;;;;;;;5070619;28;20810;-72
2022/09/18 10:47:23;;;;;;;1.60;1.00;;;;;;;;;;5070718;28;20446;-72
2022/09/18 10:49:51;;;;;;;1.93;1.50;;;;;;;;;;5071173;28;20449;-72
2022/09/18 10:52:30;;;;;;;1.77;0.70;;;;;;;;;;5070312;28;20777;-74
2022/09/18 10:54:58;;;;;;;6.27;1.10;;;;;;;;;;5070241;28;20457;-74
2022/09/18 10:57:26;;;;;;;3.33;0.90;;;;;;;;;;5069198;28;20465;-75
2022/09/18 10:59:54;;;;;;;4.43;1.57;;;;;;;;;;5063886;28;20466;-74
2022/09/18 11:02:25;;;;;;;3.07;0.73;;;;;;;;;;5063066;28;20446;-74
2022/09/18 11:04:53;;;;;;;4.97;0.70;;;;;;;;;;5067985;28;20477;-74
2022/09/18 11:07:20;;;;;;;1.43;0.63;;;;;;;;;;5067295;28;20458;-75
2022/09/18 11:09:47;;;;;;;0.80;0.60;;;;;;;;;;5068280;28;20468;-74
2022/09/18 11:12:16;;;;;;;1.10;0.90;;;;;;;;;;5067725;28;20511;-73
2022/09/18 11:14:45;;;;;;;0.73;0.60;;;;;;;;;;5067718;28;20452;-73
2022/09/18 11:17:20;;;;;;;0.90;0.67;;;;;;;;;;5065985;28;20454;-73
2022/09/18 11:19:51;;;;;;;1.87;0.50;;;;;;;;;;5065842;28;20441;-73
2022/09/18 11:22:35;;;;;;;2.07;0.60;;;;;;;;;;5067180;28;20530;-73
2022/09/18 11:25:19;;;;;;;1.17;0.70;;;;;;;;;;5066685;28;20453;-73
2022/09/18 11:27:47;;;;;;;1.30;0.83;;;;;;;;;;5067659;28;20987;-72
2022/09/18 11:30:21;;;;;;;2.83;0.70;;;;;;;;;;5067777;28;20447;-73
2022/09/18 11:32:49;;;;;;;0.70;0.57;;;;;;;;;;5068634;28;20507;-72
2022/09/18 11:35:20;;;;;;;3.80;1.30;;;;;;;;;;5067108;28;20790;-72
2022/09/18 11:37:48;;;;;;;1.30;0.50;;;;;;;;;;5068511;28;20446;-72
2022/09/18 11:40:19;;;;;;;0.90;0.57;;;;;;;;;;5068076;28;20843;-72
2022/09/18 11:42:48;;;;;;;0.90;0.60;;;;;;;;;;5067970;28;20441;-72
2022/09/18 11:45:21;;;;;;;1.13;0.63;;;;;;;;;;5067558;28;20993;-71
2022/09/18 11:47:52;;;;;;;1.80;0.80;;;;;;;;;;5070097;28;20465;-71
2022/09/18 11:50:22;;;;;;;1.23;0.87;;;;;;;;;;5069138;28;20481;-71
2022/09/18 11:52:51;;;;;;;1.50;0.50;;;;;;;;;;5072025;28;20425;-71
2022/09/18 11:55:22;;;;;;;1.53;0.70;;;;;;;;;;5070861;28;20449;-71
2022/09/18 11:57:50;;;;;;;0.80;0.50;;;;;;;;;;5071738;28;20532;-71
2022/09/18 12:00:19;;;;;;;1.60;0.60;;;;;;;;;;5069039;28;20437;-70
2022/09/18 12:02:51;;;;;;;1.23;0.70;;;;;;;;;;5071667;28;20847;-70
2022/09/18 12:05:20;;;;;;;0.60;0.47;;;;;;;;;;5070822;28;20434;-70
2022/09/18 12:07:54;;;;;;;1.30;0.77;;;;;;;;;;5071180;28;20468;-70
2022/09/18 12:10:26;;;;;;;1.33;0.90;;;;;;;;;;5071175;28;20464;-71
2022/09/18 12:12:58;;;;;;;0.60;0.50;;;;;;;;;;5071275;28;20444;-70
2022/09/18 12:15:28;;;;;;;0.70;0.60;;;;;;;;;;5070427;28;20441;-70
2022/09/18 12:17:56;;;;;;;2.20;0.70;;;;;;;;;;5067982;28;20445;-71
2022/09/18 12:20:25;;;;;;;0.87;0.60;;;;;;;;;;5070661;28;20498;-70
2022/09/18 12:22:55;;;;;;;1.20;0.80;;;;;;;;;;5070981;28;20449;-71
2022/09/18 12:25:26;;;;;;;1.00;0.63;;;;;;;;;;5070644;28;20532;-70
2022/09/18 12:27:57;;;;;;;1.80;0.70;;;;;;;;;;5071487;28;20473;-71
2022/09/18 12:30:26;;;;;;;0.70;0.50;;;;;;;;;;5070424;28;20445;-71
2022/09/18 12:33:11;;;;;;;1.87;1.10;;;;;;;;;;5071242;28;20449;-71
2022/09/18 12:35:47;;;;;;;1.27;0.73;;;;;;;;;;5069317;28;20445;-71
2022/09/18 12:38:22;;;;;;;1.00;0.63;;;;;;;;;;5071323;28;20437;-71
2022/09/18 12:41:00;;;;;;;0.87;0.70;;;;;;;;;;5070679;28;20472;-70
2022/09/18 12:43:42;;;;;;;3.13;0.77;;;;;;;;;;5070269;28;20465;-69
2022/09/18 12:46:23;;;;;;;0.67;0.60;;;;;;;;;;5070803;28;20437;-70
2022/09/18 12:48:57;;;;;;;0.80;0.60;;;;;;;;;;5070775;28;20437;-70
2022/09/18 12:51:31;;;;;;;1.20;1.00;;;;;;;;;;5069004;28;20450;-70
2022/09/18 12:54:09;;;;;;;1.23;0.70;;;;;;;;;;5063903;28;20441;-70
2022/09/18 12:56:50;;;;;;;1.47;1.00;;;;;;;;;;5070345;28;20830;-70
2022/09/18 12:59:32;;;;;;;2.60;0.80;;;;;;;;;;5065070;28;20442;-70
2022/09/18 13:02:02;;;;;;;1.97;0.90;;;;;;;;;;5057398;28;20572;-70
2022/09/18 13:04:30;;;;;;;1.27;0.80;;;;;;;;;;5069420;28;20442;-70
2022/09/18 13:06:59;;;;;;;0.80;0.50;;;;;;;;;;5069945;28;20442;-70
2022/09/18 13:09:31;;;;;;;1.20;0.80;;;;;;;;;;5069785;28;20445;-70
2022/09/18 13:12:00;;;;;;;1.03;0.67;;;;;;;;;;5069993;28;20438;-70
2022/09/18 13:14:30;;;;;;;1.10;1.00;;;;;;;;;;5069401;28;20445;-70
2022/09/18 13:16:59;;;;;;;0.97;0.60;;;;;;;;;;5069986;28;20445;-70
2022/09/18 13:19:28;;;;;;;0.93;0.67;;;;;;;;;;5066027;28;20464;-70
2022/09/18 13:21:56;;;;;;;0.90;0.77;;;;;;;;;;5069631;28;20478;-71
2022/09/18 13:24:25;;;;;;;1.70;0.77;;;;;;;;;;5068711;28;20489;-70
2022/09/18 13:26:54;;;;;;;1.17;0.50;;;;;;;;;;5069569;28;20481;-71
2022/09/18 13:29:40;;;;;;;2.10;0.70;;;;;;;;;;5069503;28;20917;-70
2022/09/18 13:32:07;;;;;;;0.87;0.50;;;;;;;;;;5069876;28;20882;-72